createdAt,value
2022-09-07T00:01:17.333Z,98476.72
2022-09-07T00:03:43.832Z,98482.22
2022-09-07T00:06:11.314Z,98472.28
2022-09-07T00:08:38.152Z,98470.09
2022-09-07T00:11:05.628Z,98471.19
2022-09-07T00:13:33.529Z,98472.31
2022-09-07T00:16:03.686Z,98467.16
2022-09-07T00:18:30.266Z,98469.34
2022-09-07T00:21:00.380Z,98469.72
2022-09-07T00:23:27.134Z,98467.09
2022-09-07T00:25:54.185Z,98467.13
2022-09-07T00:28:20.665Z,98471.16
2022-09-07T00:30:46.990Z,98472.25
2022-09-07T00:33:13.309Z,98463.44
2022-09-07T00:35:40.444Z,98458.31
2022-09-07T00:38:06.827Z,98459.44
2022-09-07T00:40:33.133Z,98454.69
2022-09-07T00:42:59.441Z,98458.34
2022-09-07T00:45:25.829Z,98460.56
2022-09-07T00:47:52.191Z,98456.50
2022-09-07T00:50:20.998Z,98455.41
2022-09-07T00:52:48.699Z,98448.44
2022-09-07T00:55:16.464Z,98442.59
2022-09-07T00:57:45.300Z,98447.34
2022-09-07T01:00:12.161Z,98448.44
2022-09-07T01:02:38.808Z,98448.78
2022-09-07T01:05:13.468Z,98445.88
2022-09-07T01:07:39.776Z,98447.34
2022-09-07T01:10:06.763Z,98442.97
2022-09-07T01:12:33.111Z,98431.25
2022-09-07T01:14:59.492Z,98433.44
2022-09-07T01:17:25.827Z,98434.16
2022-09-07T01:19:52.132Z,98428.28
2022-09-07T01:22:33.937Z,98428.63
2022-09-07T01:25:00.286Z,98433.38
2022-09-07T01:27:26.559Z,98430.09
2022-09-07T01:30:00.469Z,98420.59
2022-09-07T01:32:29.584Z,98426.44
2022-09-07T01:34:56.389Z,98429.34
2022-09-07T01:37:32.693Z,98430.78
2022-09-07T01:40:15.260Z,98417.25
2022-09-07T01:42:56.385Z,98425.66
2022-09-07T01:45:27.440Z,98418.34
2022-09-07T01:47:55.769Z,98415.03
2022-09-07T01:50:34.309Z,98417.25
2022-09-07T01:53:11.890Z,98421.63
2022-09-07T01:55:41.254Z,98424.91
2022-09-07T01:58:17.284Z,98418.31
2022-09-07T02:00:45.994Z,98419.75
2022-09-07T02:03:18.347Z,98415.72
2022-09-07T02:05:51.514Z,98418.28
2022-09-07T02:08:26.311Z,98417.91
2022-09-07T02:10:59.764Z,98415.75
2022-09-07T02:13:35.206Z,98412.44
2022-09-07T02:16:07.883Z,98413.56
2022-09-07T02:18:37.131Z,98418.69
2022-09-07T02:21:04.963Z,98412.81
2022-09-07T02:23:38.157Z,98421.94
2022-09-07T02:26:07.245Z,98429.25
2022-09-07T02:28:34.533Z,98429.25
2022-09-07T02:31:00.992Z,98432.88
2022-09-07T02:33:28.262Z,98417.88
2022-09-07T02:35:54.678Z,98407.25
2022-09-07T02:38:21.020Z,98416.78
2022-09-07T02:40:52.036Z,98410.94
2022-09-07T02:43:19.295Z,98411.28
2022-09-07T02:45:51.618Z,98408.72
2022-09-07T02:48:28.601Z,98394.84
2022-09-07T02:50:54.952Z,98389.72
2022-09-07T02:53:31.078Z,98385.00
2022-09-07T02:56:09.737Z,98391.22
2022-09-07T02:58:54.660Z,98386.84
2022-09-07T03:01:39.570Z,98387.22
2022-09-07T03:04:11.724Z,98385.44
2022-09-07T03:07:13.706Z,98390.88
2022-09-07T03:09:42.371Z,98377.34
2022-09-07T03:12:09.049Z,98381.72
2022-09-07T03:14:39.781Z,98378.44
2022-09-07T03:17:06.367Z,98381.00
2022-09-07T03:19:32.715Z,98386.09
2022-09-07T03:21:59.049Z,98379.91
2022-09-07T03:24:25.464Z,98377.72
2022-09-07T03:26:51.889Z,98379.16
2022-09-07T03:29:18.569Z,98383.16
2022-09-07T03:31:44.872Z,98394.13
2022-09-07T03:34:11.612Z,98403.63
2022-09-07T03:36:38.338Z,98404.34
2022-09-07T03:39:05.223Z,98401.41
2022-09-07T03:41:31.537Z,98398.50
2022-09-07T03:44:02.094Z,98391.53
2022-09-07T03:46:28.453Z,98398.84
2022-09-07T03:48:54.793Z,98401.06
2022-09-07T03:51:21.084Z,98408.03
2022-09-07T03:53:47.653Z,98402.50
2022-09-07T03:56:16.125Z,98404.38
2022-09-07T03:58:42.455Z,98400.72
2022-09-07T04:01:10.751Z,98405.88
2022-09-07T04:03:37.167Z,98398.91
2022-09-07T04:08:42.395Z,98389.06
2022-09-07T04:11:10.726Z,98396.34
2022-09-07T04:13:37.076Z,98395.66
2022-09-07T04:16:10.255Z,98396.03
2022-09-07T04:18:37.437Z,98394.19
2022-09-07T04:21:04.009Z,98396.41
2022-09-07T04:23:30.304Z,98394.97
2022-09-07T04:25:56.689Z,98392.38
2022-09-07T04:28:23.084Z,98394.25
2022-09-07T04:30:49.559Z,98390.59
2022-09-07T04:33:15.941Z,98382.91
2022-09-07T04:35:42.557Z,98389.53
2022-09-07T04:38:12.327Z,98392.47
2022-09-07T04:40:39.067Z,98394.28
2022-09-07T04:43:05.509Z,98392.81
2022-09-07T04:45:31.839Z,98390.66
2022-09-07T04:47:58.305Z,98384.44
2022-09-07T04:50:24.772Z,98382.25
2022-09-07T04:52:51.215Z,98384.78
2022-09-07T04:55:17.731Z,98382.22
2022-09-07T04:57:44.140Z,98370.88
2022-09-07T05:00:11.419Z,98369.75
2022-09-07T05:02:39.079Z,98380.75
2022-09-07T05:05:06.206Z,98385.88
2022-09-07T05:07:32.766Z,98381.88
2022-09-07T05:10:01.106Z,98381.09
2022-09-07T05:12:27.482Z,98386.22
2022-09-07T05:14:54.007Z,98394.97
2022-09-07T05:17:20.449Z,98390.59
2022-09-07T05:19:47.955Z,98384.72
2022-09-07T05:22:14.635Z,98384.34
2022-09-07T05:24:41.037Z,98386.53
2022-09-07T05:27:07.606Z,98385.75
2022-09-07T05:32:20.335Z,98382.34
2022-09-07T05:34:48.560Z,98381.16
2022-09-07T05:37:16.418Z,98382.53
2022-09-07T05:39:43.069Z,98390.56
2022-09-07T05:42:09.525Z,98382.13
2022-09-07T05:47:09.461Z,98384.31
2022-09-07T05:49:35.909Z,98381.44
2022-09-07T05:52:02.372Z,98374.75
2022-09-07T05:54:28.711Z,98364.38
2022-09-07T05:56:55.237Z,98381.75
2022-09-07T05:59:21.696Z,98385.38
2022-09-07T06:01:48.174Z,98380.53
2022-09-07T06:04:14.644Z,98387.53
2022-09-07T06:06:41.208Z,98381.28
2022-09-07T06:09:07.865Z,98372.38
2022-09-07T06:11:34.297Z,98384.00
2022-09-07T06:14:00.713Z,98391.69
2022-09-07T06:16:27.146Z,98371.72
2022-09-07T06:18:53.870Z,98379.94
2022-09-07T06:21:21.124Z,98384.41
2022-09-07T06:23:48.110Z,98375.91
2022-09-07T06:26:15.227Z,98371.28
2022-09-07T06:28:42.848Z,98362.19
2022-09-07T06:31:10.845Z,98359.75
2022-09-07T06:33:37.437Z,98357.47
2022-09-07T06:36:05.225Z,98356.47
2022-09-07T06:38:32.585Z,98350.56
2022-09-07T06:43:50.014Z,98337.81
2022-09-07T06:49:03.195Z,98350.41
2022-09-07T06:51:29.733Z,98344.59
2022-09-07T06:56:43.384Z,98351.66
2022-09-07T06:59:09.770Z,98346.75
2022-09-07T07:01:36.302Z,98345.88
2022-09-07T07:04:02.842Z,98350.25
2022-09-07T07:06:33.099Z,98359.84
2022-09-07T07:08:59.470Z,98360.59
2022-09-07T07:11:25.907Z,98350.91
2022-09-07T07:13:52.351Z,98354.88
2022-09-07T07:16:19.382Z,98362.06
2022-09-07T07:18:45.978Z,98362.06
2022-09-07T07:21:13.492Z,98364.94
2022-09-07T07:23:40.235Z,98366.31
2022-09-07T07:26:13.880Z,98363.59
2022-09-07T07:31:27.062Z,98365.09
2022-09-07T07:33:53.538Z,98362.53
2022-09-07T07:36:21.055Z,98362.94
2022-09-07T07:39:03.573Z,98373.69
2022-09-07T07:44:17.876Z,98355.56
2022-09-07T07:46:47.128Z,98354.16
2022-09-07T07:49:13.610Z,98361.91
2022-09-07T07:54:26.315Z,98362.06
2022-09-07T07:56:52.707Z,98361.31
2022-09-07T07:59:19.199Z,98354.16
2022-09-07T08:01:45.697Z,98351.75
2022-09-07T08:04:12.217Z,98353.84
2022-09-07T08:06:42.554Z,98343.56
2022-09-07T08:09:08.900Z,98345.00
2022-09-07T08:11:35.509Z,98346.03
2022-09-07T08:14:03.406Z,98343.34
2022-09-07T08:16:29.746Z,98353.00
2022-09-07T08:18:57.230Z,98347.69
2022-09-07T08:21:23.521Z,98346.34
2022-09-07T08:23:49.815Z,98347.19
2022-09-07T08:26:17.519Z,98341.22
2022-09-07T08:28:45.583Z,98337.94
2022-09-07T08:31:13.169Z,98336.97
2022-09-07T08:33:39.707Z,98331.69
2022-09-07T08:36:07.763Z,98331.28
2022-09-07T08:38:34.741Z,98339.13
2022-09-07T08:41:02.445Z,98338.44
2022-09-07T08:43:49.128Z,98353.19
2022-09-07T08:46:22.044Z,98346.03
2022-09-07T08:48:48.702Z,98351.47
2022-09-07T08:51:24.312Z,98347.84
2022-09-07T08:53:50.988Z,98348.19
2022-09-07T08:56:20.804Z,98349.59
2022-09-07T08:58:53.214Z,98346.16
2022-09-07T09:06:10.905Z,98341.28
2022-09-07T09:06:11.714Z,98339.13
2022-09-07T09:07:10.863Z,98340.41
2022-09-07T09:09:40.271Z,98340.38
2022-09-07T09:12:25.592Z,98336.59
2022-09-07T09:14:53.107Z,98335.63
2022-09-07T09:17:38.200Z,98327.84
2022-09-07T09:20:05.024Z,98320.91
2022-09-07T09:22:31.349Z,98322.06
2022-09-07T09:25:13.538Z,98321.47
2022-09-07T09:27:39.928Z,98327.72
2022-09-07T09:30:13.652Z,98334.47
2022-09-07T09:32:41.745Z,98324.66
2022-09-07T09:35:14.168Z,98318.31
2022-09-07T09:37:41.640Z,98314.53
2022-09-07T09:40:18.690Z,98310.81
2022-09-07T09:42:45.093Z,98315.28
2022-09-07T09:45:16.723Z,98318.69
2022-09-07T09:47:48.098Z,98312.00
2022-09-07T09:53:16.160Z,98314.03
2022-09-07T09:55:42.846Z,98308.69
2022-09-07T10:01:24.439Z,98314.38
2022-09-07T10:12:53.712Z,98293.44
2022-09-07T10:25:50.924Z,98294.50
2022-09-07T10:28:18.938Z,98290.84
2022-09-07T10:30:45.291Z,98284.28
2022-09-07T10:33:34.353Z,98288.19
2022-09-07T10:36:06.974Z,98297.56
2022-09-07T10:38:37.741Z,98297.59
2022-09-07T10:41:07.328Z,98296.75
2022-09-07T10:43:39.475Z,98296.19
2022-09-07T10:46:11.907Z,98298.50
2022-09-07T10:48:43.155Z,98293.34
2022-09-07T10:51:14.643Z,98300.53
2022-09-07T10:53:42.267Z,98296.78
2022-09-07T10:56:09.102Z,98299.38
2022-09-07T11:01:31.648Z,98294.47
2022-09-07T11:04:01.078Z,98287.50
2022-09-07T11:06:37.570Z,98288.09
2022-09-07T11:09:19.866Z,98294.59
2022-09-07T11:12:03.021Z,98288.41
2022-09-07T11:14:32.701Z,98293.88
2022-09-07T11:17:01.638Z,98293.72
2022-09-07T11:19:38.228Z,98296.56
2022-09-07T11:22:28.078Z,98299.06
2022-09-07T11:27:52.352Z,98298.09
2022-09-07T11:30:20.767Z,98298.53
2022-09-07T11:32:51.523Z,98300.53
2022-09-07T11:35:31.364Z,98292.88
2022-09-07T11:38:00.598Z,98292.44
2022-09-07T11:40:31.498Z,98292.75
2022-09-07T11:43:12.526Z,98290.00
2022-09-07T11:45:48.608Z,98292.63
2022-09-07T11:48:19.438Z,98281.63
2022-09-07T11:50:48.568Z,98284.66
2022-09-07T11:53:19.894Z,98285.25
2022-09-07T11:55:48.600Z,98279.44
2022-09-07T11:58:28.100Z,98274.97
2022-09-07T12:01:12.937Z,98274.84
2022-09-07T12:03:51.793Z,98264.41
2022-09-07T12:06:18.209Z,98254.88
2022-09-07T12:08:56.561Z,98258.63
2022-09-07T12:11:31.101Z,98255.25
2022-09-07T12:14:06.427Z,98257.72
2022-09-07T12:16:35.868Z,98259.81
2022-09-07T12:19:02.280Z,98258.09
2022-09-07T12:21:37.772Z,98251.00
2022-09-07T12:24:04.240Z,98247.69
2022-09-07T12:26:33.608Z,98235.09
2022-09-07T12:29:00.001Z,98220.03
2022-09-07T12:32:52.376Z,98225.94
2022-09-07T12:34:59.492Z,98227.53
2022-09-07T12:37:44.019Z,98217.59
2022-09-07T12:40:28.841Z,98220.88
2022-09-07T12:43:13.558Z,98229.53
2022-09-07T12:45:40.006Z,98232.88
2022-09-07T12:48:23.441Z,98239.97
2022-09-07T12:50:56.688Z,98244.75
2022-09-07T12:53:22.989Z,98236.69
2022-09-07T12:58:46.412Z,98218.19
2022-09-07T13:01:20.825Z,98216.22
2022-09-07T13:04:05.949Z,98217.78
2022-09-07T13:07:06.333Z,98229.50
2022-09-07T13:09:34.222Z,98246.13
2022-09-07T13:12:04.814Z,98242.34
2022-09-07T13:14:34.502Z,98239.31
2022-09-07T13:17:20.048Z,98234.09
2022-09-07T13:19:46.439Z,98233.53
2022-09-07T13:22:42.085Z,98229.34
2022-09-07T13:25:20.678Z,98231.25
2022-09-07T13:27:52.826Z,98223.56
2022-09-07T13:30:29.136Z,98228.47
2022-09-07T13:33:14.549Z,98222.97
2022-09-07T13:35:44.620Z,98226.69
2022-09-07T13:38:11.925Z,98223.66
2022-09-07T13:40:39.493Z,98223.47
2022-09-07T13:43:06.275Z,98210.78
2022-09-07T13:45:45.794Z,98206.09
2022-09-07T13:48:35.293Z,98200.88
2022-09-07T13:51:20.479Z,98203.03
2022-09-07T13:53:56.146Z,98204.94
2022-09-07T13:56:41.408Z,98207.69
2022-09-07T13:59:12.250Z,98211.44
2022-09-07T14:01:42.913Z,98204.63
2022-09-07T14:04:19.635Z,98213.59
2022-09-07T14:06:46.015Z,98212.41
2022-09-07T14:09:14.017Z,98214.66
2022-09-07T14:11:45.174Z,98213.94
2022-09-07T14:14:17.274Z,98209.66
2022-09-07T14:16:45.106Z,98207.66
2022-09-07T14:19:13.365Z,98211.16
2022-09-07T14:21:40.180Z,98200.59
2022-09-07T14:24:17.882Z,98198.72
2022-09-07T14:26:48.806Z,98188.75
2022-09-07T14:29:22.394Z,98184.28
2022-09-07T14:31:48.828Z,98188.19
2022-09-07T14:34:16.909Z,98190.50
2022-09-07T14:36:46.249Z,98191.50
2022-09-07T14:39:17.239Z,98183.56
2022-09-07T14:41:44.182Z,98187.06
2022-09-07T14:44:29.930Z,98177.50
2022-09-07T14:46:57.484Z,98177.75
2022-09-07T14:49:24.471Z,98183.56
2022-09-07T14:51:51.809Z,98182.06
2022-09-07T14:54:38.401Z,98180.94
2022-09-07T14:57:25.949Z,98183.97
2022-09-07T14:59:53.846Z,98198.53
2022-09-07T15:02:26.309Z,98205.81
2022-09-07T15:05:11.491Z,98204.66
2022-09-07T15:07:39.251Z,98204.34
2022-09-07T15:10:20.547Z,98196.28
2022-09-07T15:12:48.686Z,98189.50
2022-09-07T15:15:29.981Z,98193.25
2022-09-07T15:18:01.813Z,98181.44
2022-09-07T15:20:34.960Z,98171.00
2022-09-07T15:23:03.852Z,98166.81
2022-09-07T15:25:30.847Z,98167.25
2022-09-07T15:27:57.335Z,98162.47
2022-09-07T15:30:24.761Z,98160.31
2022-09-07T15:32:51.213Z,98159.41
2022-09-07T15:35:17.588Z,98164.31
2022-09-07T15:40:33.241Z,98166.66
2022-09-07T15:43:00.325Z,98169.97
2022-09-07T15:45:27.130Z,98171.97
2022-09-07T15:47:53.977Z,98165.63
2022-09-07T15:50:26.357Z,98168.25
2022-09-07T15:52:53.136Z,98156.44
2022-09-07T15:55:19.661Z,98153.97
2022-09-07T15:57:54.512Z,98152.56
2022-09-07T16:00:26.360Z,98153.28
2022-09-07T16:03:09.047Z,98132.50
2022-09-07T16:05:35.681Z,98131.06
2022-09-07T16:11:05.385Z,98121.97
2022-09-07T16:13:32.250Z,98113.72
2022-09-07T16:15:59.957Z,98121.25
2022-09-07T16:18:26.963Z,98119.50
2022-09-07T16:20:57.356Z,98118.34
2022-09-07T16:23:23.738Z,98120.19
2022-09-07T16:26:00.576Z,98116.88
2022-09-07T16:28:27.415Z,98121.94
2022-09-07T16:30:53.860Z,98121.50
2022-09-07T16:33:20.296Z,98124.06
2022-09-07T16:35:59.139Z,98122.47
2022-09-07T16:41:12.998Z,98128.50
2022-09-07T16:43:39.392Z,98124.00
2022-09-07T16:46:07.249Z,98131.19
2022-09-07T16:48:34.812Z,98138.50
2022-09-07T16:51:04.963Z,98142.09
2022-09-07T16:53:32.646Z,98147.28
2022-09-07T16:56:05.107Z,98142.94
2022-09-07T16:58:35.690Z,98135.72
2022-09-07T17:01:02.855Z,98144.00
2022-09-07T17:03:29.762Z,98144.09
2022-09-07T17:05:56.170Z,98137.59
2022-09-07T17:08:22.562Z,98138.28
2022-09-07T17:10:48.874Z,98123.44
2022-09-07T17:13:15.209Z,98117.22
2022-09-07T17:15:41.538Z,98112.00
2022-09-07T17:18:07.821Z,98101.97
2022-09-07T17:20:34.201Z,98106.84
2022-09-07T17:23:01.565Z,98100.03
2022-09-07T17:25:28.340Z,98100.03
2022-09-07T17:27:54.649Z,98101.84
2022-09-07T17:30:21.623Z,98098.19
2022-09-07T17:32:48.026Z,98117.06
2022-09-07T17:35:14.390Z,98117.75
2022-09-07T17:37:40.685Z,98124.59
2022-09-07T17:40:07.381Z,98119.88
2022-09-07T17:45:19.940Z,98132.75
2022-09-07T17:47:46.297Z,98135.66
2022-09-07T17:50:12.564Z,98143.28
2022-09-07T17:52:41.169Z,98147.66
2022-09-07T17:55:11.933Z,98148.72
2022-09-07T17:57:38.250Z,98158.53
2022-09-07T18:00:11.304Z,98158.09
2022-09-07T18:02:38.438Z,98157.59
2022-09-07T18:05:05.058Z,98159.13
2022-09-07T18:07:32.796Z,98159.34
2022-09-07T18:09:59.309Z,98163.41
2022-09-07T18:12:25.752Z,98164.09
2022-09-07T18:14:52.077Z,98168.34
2022-09-07T18:17:18.354Z,98174.25
2022-09-07T18:19:44.910Z,98170.28
2022-09-07T18:22:11.178Z,98173.00
2022-09-07T18:24:37.460Z,98168.88
2022-09-07T18:27:04.237Z,98169.88
2022-09-07T18:29:33.597Z,98168.88
2022-09-07T18:32:01.127Z,98155.50
2022-09-07T18:34:28.774Z,98159.53
2022-09-07T18:36:55.363Z,98155.84
2022-09-07T18:39:21.787Z,98160.28
2022-09-07T18:41:48.358Z,98160.53
2022-09-07T18:47:00.984Z,98154.47
2022-09-07T18:49:27.353Z,98158.78
2022-09-07T18:54:41.296Z,98145.03
2022-09-07T18:57:07.865Z,98155.59
2022-09-07T18:59:34.208Z,98162.09
2022-09-07T19:02:04.262Z,98171.81
2022-09-07T19:07:20.500Z,98166.31
2022-09-07T19:09:48.173Z,98160.81
2022-09-07T19:12:14.817Z,98158.63
2022-09-07T19:14:42.208Z,98153.47
2022-09-07T19:17:10.868Z,98143.97
2022-09-07T19:19:37.624Z,98124.13
2022-09-07T19:22:03.952Z,98114.91
2022-09-07T19:24:31.764Z,98113.13
2022-09-07T19:27:00.429Z,98112.41
2022-09-07T19:29:27.357Z,98107.75
2022-09-07T19:32:06.865Z,98102.88
2022-09-07T19:34:34.159Z,98106.00
2022-09-07T19:37:00.685Z,98108.34
2022-09-07T19:39:27.090Z,98108.44
2022-09-07T19:41:53.586Z,98120.31
2022-09-07T19:44:20.155Z,98121.25
2022-09-07T19:46:46.500Z,98123.25
2022-09-07T19:49:13.229Z,98114.25
2022-09-07T19:51:40.215Z,98122.06
2022-09-07T19:54:06.914Z,98123.94
2022-09-07T19:56:33.296Z,98117.41
2022-09-07T19:58:59.572Z,98104.28
2022-09-07T20:01:25.985Z,98102.81
2022-09-07T20:03:56.184Z,98107.50
2022-09-07T20:06:22.572Z,98112.75
2022-09-07T20:08:48.862Z,98117.66
2022-09-07T20:11:15.997Z,98114.84
2022-09-07T20:13:42.310Z,98115.31
2022-09-07T20:16:12.110Z,98108.72
2022-09-07T20:18:38.984Z,98107.78
2022-09-07T20:21:09.254Z,98109.63
2022-09-07T20:23:35.760Z,98105.25
2022-09-07T20:26:03.822Z,98100.19
2022-09-07T20:28:30.181Z,98103.00
2022-09-07T20:30:56.672Z,98102.50
2022-09-07T20:33:23.303Z,98115.25
2022-09-07T20:35:49.943Z,98112.75
2022-09-07T20:38:21.025Z,98118.81
2022-09-07T20:40:54.037Z,98118.19
2022-09-07T20:43:21.178Z,98123.72
2022-09-07T20:45:47.589Z,98114.69
2022-09-07T20:48:13.998Z,98113.97
2022-09-07T20:50:44.005Z,98104.94
2022-09-07T20:53:10.290Z,98100.91
2022-09-07T20:55:36.569Z,98092.91
2022-09-07T20:58:02.901Z,98092.59
2022-09-07T21:00:29.612Z,98093.72
2022-09-07T21:02:56.278Z,98091.91
2022-09-07T21:05:22.639Z,98102.22
2022-09-07T21:07:48.907Z,98099.59
2022-09-07T21:10:15.218Z,98090.91
2022-09-07T21:12:41.483Z,98093.53
2022-09-07T21:15:08.894Z,98093.63
2022-09-07T21:17:35.155Z,98092.25
2022-09-07T21:20:01.675Z,98094.09
2022-09-07T21:22:27.938Z,98099.31
2022-09-07T21:24:54.273Z,98093.50
2022-09-07T21:27:20.629Z,98097.22
2022-09-07T21:29:46.983Z,98103.19
2022-09-07T21:32:13.278Z,98094.31
2022-09-07T21:34:39.563Z,98097.94
2022-09-07T21:37:05.936Z,98097.94
2022-09-07T21:39:32.265Z,98094.31
2022-09-07T21:41:58.563Z,98094.38
2022-09-07T21:44:25.732Z,98091.81
2022-09-07T21:46:52.028Z,98089.56
2022-09-07T21:49:18.323Z,98091.84
2022-09-07T21:51:44.653Z,98090.09
2022-09-07T21:54:10.959Z,98090.16
2022-09-07T21:56:37.242Z,98080.34
2022-09-07T21:59:04.731Z,98085.50
2022-09-07T22:01:31.311Z,98083.72
2022-09-07T22:03:58.963Z,98077.47
2022-09-07T22:06:27.250Z,98081.16
2022-09-07T22:08:53.848Z,98083.16
2022-09-07T22:11:21.042Z,98086.94
2022-09-07T22:13:47.360Z,98082.91
2022-09-07T22:16:14.126Z,98088.47
2022-09-07T22:18:44.382Z,98081.13
2022-09-07T22:21:14.645Z,98071.19
2022-09-07T22:23:42.162Z,98074.59
2022-09-07T22:26:08.783Z,98066.13
2022-09-07T22:28:35.449Z,98052.53
2022-09-07T22:31:09.160Z,98062.56
2022-09-07T22:33:35.449Z,98054.91
2022-09-07T22:36:12.861Z,98044.25
2022-09-07T22:38:39.353Z,98042.88
2022-09-07T22:41:06.867Z,98039.91
2022-09-07T22:43:33.226Z,98046.63
2022-09-07T22:45:59.805Z,98043.31
2022-09-07T22:48:27.108Z,98044.16
2022-09-07T22:50:54.783Z,98044.94
2022-09-07T22:53:21.078Z,98033.91
2022-09-07T22:55:47.332Z,98036.84
2022-09-07T22:58:13.606Z,98043.13
2022-09-07T23:00:39.880Z,98040.25
2022-09-07T23:03:06.167Z,98032.13
2022-09-07T23:05:38.606Z,98035.53
2022-09-07T23:08:05.062Z,98031.13
2022-09-07T23:10:33.764Z,98026.03
2022-09-07T23:13:00.060Z,98030.41
2022-09-07T23:15:26.336Z,98024.91
2022-09-07T23:17:52.783Z,98024.97
2022-09-07T23:20:19.945Z,98033.50
2022-09-07T23:22:46.394Z,98030.97
2022-09-07T23:25:13.030Z,98034.72
2022-09-07T23:27:39.588Z,98032.88
2022-09-07T23:30:06.541Z,98040.31
2022-09-07T23:32:33.290Z,98032.59
2022-09-07T23:34:59.639Z,98028.91
2022-09-07T23:37:25.909Z,98020.78
2022-09-07T23:39:52.221Z,98024.56
2022-09-07T23:42:18.579Z,98023.44
2022-09-07T23:44:48.330Z,98025.66
2022-09-07T23:47:15.083Z,98015.44
2022-09-07T23:49:41.349Z,98022.03
2022-09-07T23:52:07.632Z,98024.88
2022-09-07T23:54:33.898Z,98019.00
2022-09-07T23:57:00.223Z,98022.63
2022-09-07T23:59:26.502Z,98027.06
